createdAt,value
2022-10-03T00:01:16.303Z,-23513.81
2022-10-03T00:03:32.160Z,-23511.59
2022-10-03T00:05:46.202Z,-23513.03
2022-10-03T00:08:04.609Z,-23510.81
2022-10-03T00:10:18.911Z,-23514.91
2022-10-03T00:12:40.407Z,-23514.13
2022-10-03T00:14:57.552Z,-23512.22
2022-10-03T00:17:07.865Z,-23515.25
2022-10-03T00:19:25.583Z,-23514.75
2022-10-03T00:21:53.791Z,-23512.06
2022-10-03T00:24:03.831Z,-23511.28
2022-10-03T00:26:27.563Z,-23509.06
2022-10-03T00:28:49.709Z,-23507.16
2022-10-03T00:31:13.086Z,-23505.56
2022-10-03T00:33:26.381Z,-23506.38
2022-10-03T00:35:57.233Z,-23503.84
2022-10-03T00:38:18.548Z,-23503.69
2022-10-03T00:40:40.319Z,-23503.34
2022-10-03T00:43:12.798Z,-23499.72
2022-10-03T00:45:40.234Z,-23500.19
2022-10-03T00:48:21.336Z,-23500.97
2022-10-03T00:50:48.105Z,-23500.50
2022-10-03T00:53:24.557Z,-23499.06
2022-10-03T00:55:39.658Z,-23499.25
2022-10-03T00:58:01.239Z,-23501.13
2022-10-03T01:00:15.212Z,-23501.94
2022-10-03T01:02:27.045Z,-23504.00
2022-10-03T01:04:43.176Z,-23508.09
2022-10-03T01:06:54.171Z,-23506.38
2022-10-03T01:09:13.699Z,-23506.53
2022-10-03T01:11:31.057Z,-23506.84
2022-10-03T01:13:44.883Z,-23510.00
2022-10-03T01:15:56.834Z,-23508.75
2022-10-03T01:18:12.644Z,-23507.78
2022-10-03T01:20:29.568Z,-23513.50
2022-10-03T01:23:07.681Z,-23511.59
2022-10-03T01:25:20.164Z,-23510.97
2022-10-03T01:27:32.804Z,-23510.81
2022-10-03T01:30:02.629Z,-23510.31
2022-10-03T01:32:11.687Z,-23510.97
2022-10-03T01:34:21.961Z,-23512.84
2022-10-03T01:36:32.756Z,-23514.75
2022-10-03T01:38:43.322Z,-23513.34
2022-10-03T01:40:54.426Z,-23510.97
2022-10-03T01:43:10.704Z,-23510.97
2022-10-03T01:45:26.219Z,-23511.13
2022-10-03T01:47:39.190Z,-23511.91
2022-10-03T01:49:47.922Z,-23505.72
2022-10-03T01:52:00.523Z,-23506.22
2022-10-03T01:54:07.905Z,-23506.22
2022-10-03T01:56:16.621Z,-23502.56
2022-10-03T01:58:28.750Z,-23506.84
2022-10-03T02:00:41.461Z,-23505.72
2022-10-03T02:02:49.982Z,-23505.56
2022-10-03T02:05:03.321Z,-23504.94
2022-10-03T02:07:12.430Z,-23502.88
2022-10-03T02:09:26.083Z,-23504.00
2022-10-03T02:11:36.578Z,-23504.63
2022-10-03T02:13:46.740Z,-23506.69
2022-10-03T02:15:58.591Z,-23508.59
2022-10-03T02:18:14.514Z,-23510.97
2022-10-03T02:20:27.487Z,-23510.50
2022-10-03T02:22:34.211Z,-23509.38
2022-10-03T02:24:44.259Z,-23512.22
2022-10-03T02:27:08.086Z,-23513.50
2022-10-03T02:29:32.362Z,-23512.22
2022-10-03T02:32:13.339Z,-23516.34
2022-10-03T02:34:32.948Z,-23516.19
2022-10-03T02:37:03.094Z,-23514.44
2022-10-03T02:39:39.441Z,-23514.91
2022-10-03T02:42:03.054Z,-23514.13
2022-10-03T02:44:54.112Z,-23515.72
2022-10-03T02:47:42.130Z,-23513.81
2022-10-03T02:50:37.574Z,-23512.53
2022-10-03T02:53:04.459Z,-23514.75
2022-10-03T02:55:27.891Z,-23514.44
2022-10-03T02:58:04.530Z,-23513.50
2022-10-03T03:00:13.554Z,-23514.13
2022-10-03T03:02:49.496Z,-23511.13
2022-10-03T03:05:40.887Z,-23513.19
2022-10-03T03:08:14.947Z,-23512.38
2022-10-03T03:10:37.640Z,-23514.13
2022-10-03T03:13:07.048Z,-23510.97
2022-10-03T03:16:01.486Z,-23510.66
2022-10-03T03:18:13.812Z,-23509.38
2022-10-03T03:20:33.322Z,-23506.06
2022-10-03T03:22:58.602Z,-23507.47
2022-10-03T03:25:22.866Z,-23507.16
2022-10-03T03:27:51.736Z,-23506.22
2022-10-03T03:30:02.211Z,-23508.91
2022-10-03T03:32:15.373Z,-23502.56
2022-10-03T03:34:26.992Z,-23501.47
2022-10-03T03:36:37.407Z,-23503.19
2022-10-03T03:38:51.352Z,-23502.88
2022-10-03T03:41:10.331Z,-23197.94
2022-10-03T03:43:38.042Z,-17381.22
2022-10-03T03:45:54.383Z,-17058.06
2022-10-03T03:48:08.342Z,-18024.81
2022-10-03T03:50:31.309Z,-17055.63
2022-10-03T03:52:53.028Z,-17701.59
2022-10-03T03:55:15.048Z,-22087.25
2022-10-03T03:57:46.476Z,-23495.28
2022-10-03T04:00:04.917Z,-23493.84
2022-10-03T04:02:21.320Z,-23492.25
2022-10-03T04:04:39.169Z,-23493.84
2022-10-03T04:06:57.734Z,-23492.25
2022-10-03T04:09:09.443Z,-23492.09
2022-10-03T04:11:24.603Z,-23490.22
2022-10-03T04:13:50.968Z,-23488.47
2022-10-03T04:16:06.529Z,-23484.03
2022-10-03T04:18:53.468Z,-23485.44
2022-10-03T04:21:13.603Z,-23484.34
2022-10-03T04:23:38.718Z,-23484.81
2022-10-03T04:25:54.768Z,-23484.34
2022-10-03T04:28:27.326Z,-23482.91
2022-10-03T04:30:41.464Z,-23481.16
2022-10-03T04:33:10.126Z,-23481.66
2022-10-03T04:35:34.187Z,-23479.91
2022-10-03T04:37:44.855Z,-23480.53
2022-10-03T04:39:58.138Z,-23478.94
2022-10-03T04:42:09.642Z,-23479.91
2022-10-03T04:44:29.390Z,-23480.22
2022-10-03T04:46:40.554Z,-23479.25
2022-10-03T04:49:01.567Z,-23480.38
2022-10-03T04:51:13.847Z,-23480.22
2022-10-03T04:53:28.853Z,-23478.31
2022-10-03T04:55:40.360Z,-23478.00
2022-10-03T04:57:48.297Z,-23477.03
2022-10-03T05:00:00.551Z,-23479.25
2022-10-03T05:02:12.750Z,-23478.94
2022-10-03T05:04:27.075Z,-23481.16
2022-10-03T05:06:38.788Z,-23482.28
2022-10-03T05:08:51.025Z,-23484.97
2022-10-03T05:11:08.044Z,-23481.66
2022-10-03T05:13:20.853Z,-23485.75
2022-10-03T05:15:29.816Z,-23486.56
2022-10-03T05:17:46.383Z,-23486.09
2022-10-03T05:20:02.594Z,-23485.59
2022-10-03T05:22:17.048Z,-23484.50
2022-10-03T05:24:27.611Z,-23484.34
2022-10-03T05:26:46.295Z,-23485.59
2022-10-03T05:28:55.355Z,-23490.69
2022-10-03T05:31:08.680Z,-23486.72
2022-10-03T05:33:21.446Z,-23485.59
2022-10-03T05:35:32.560Z,-23487.19
2022-10-03T05:38:14.014Z,-23487.50
2022-10-03T05:40:22.350Z,-23487.50
2022-10-03T05:42:37.735Z,-23489.41
2022-10-03T05:44:44.686Z,-22932.47
2022-10-03T05:46:59.983Z,-23336.19
2022-10-03T05:49:16.980Z,-23494.81
2022-10-03T05:51:46.955Z,-23497.66
2022-10-03T05:54:29.058Z,-23496.06
2022-10-03T05:56:54.902Z,-23503.50
2022-10-03T05:59:36.165Z,-23502.56
2022-10-03T06:02:14.686Z,-23499.25
2022-10-03T06:04:53.827Z,-23495.75
2022-10-03T06:07:14.111Z,-23496.53
2022-10-03T06:10:04.528Z,-23132.50
2022-10-03T06:12:11.387Z,-21252.56
2022-10-03T06:14:32.545Z,-20241.09
2022-10-03T06:16:47.183Z,-15119.09
2022-10-03T06:19:27.172Z,-14473.84
2022-10-03T06:22:15.098Z,-13827.81
2022-10-03T06:25:01.530Z,-14472.31
2022-10-03T06:27:33.303Z,-10922.59
2022-10-03T06:30:12.143Z,-16086.97
2022-10-03T06:32:49.457Z,-14150.47
2022-10-03T06:35:31.448Z,-13507.84
2022-10-03T06:38:10.925Z,-21231.59
2022-10-03T06:40:44.729Z,-21439.66
2022-10-03T06:43:10.803Z,-23507.94
2022-10-03T06:45:55.681Z,-23505.25
2022-10-03T06:48:10.420Z,-23510.00
2022-10-03T06:50:35.568Z,-23514.59
2022-10-03T06:53:09.612Z,-23512.84
2022-10-03T06:55:32.998Z,-23515.06
2022-10-03T06:58:08.053Z,-23516.34
2022-10-03T07:00:16.904Z,-23512.53
2022-10-03T07:03:04.140Z,-23509.84
2022-10-03T07:05:44.694Z,-23507.63
2022-10-03T07:08:23.039Z,-23502.72
2022-10-03T07:10:45.066Z,-23504.94
2022-10-03T07:13:35.667Z,-23507.78
2022-10-03T07:16:26.811Z,-23506.38
2022-10-03T07:18:55.012Z,-23509.84
2022-10-03T07:21:32.223Z,-23508.09
2022-10-03T07:24:11.323Z,-23509.84
2022-10-03T07:26:50.282Z,-23513.50
2022-10-03T07:29:19.082Z,-23511.28
2022-10-03T07:31:34.631Z,-23514.44
2022-10-03T07:34:11.221Z,-23507.78
2022-10-03T07:37:12.323Z,-23510.66
2022-10-03T07:39:42.212Z,-23509.69
2022-10-03T07:42:01.670Z,-23507.63
2022-10-03T07:44:44.074Z,-23513.81
2022-10-03T07:47:34.487Z,-23518.09
2022-10-03T07:50:18.142Z,-23523.78
2022-10-03T07:52:46.510Z,-23522.38
2022-10-03T07:55:16.052Z,-23526.16
2022-10-03T07:57:52.726Z,-23523.63
2022-10-03T08:00:22.701Z,-23524.91
2022-10-03T08:02:42.215Z,-23523.00
2022-10-03T08:05:13.608Z,-23521.72
2022-10-03T08:07:33.871Z,-23532.50
2022-10-03T08:10:09.935Z,-23529.34
2022-10-03T08:13:09.328Z,-23532.19
2022-10-03T08:15:27.015Z,-23535.34
2022-10-03T08:17:58.875Z,-23538.50
2022-10-03T08:20:21.273Z,-23535.50
2022-10-03T08:22:38.661Z,-23532.50
2022-10-03T08:25:07.488Z,-23538.34
2022-10-03T08:27:46.349Z,-23544.22
2022-10-03T08:30:07.308Z,-23537.25
2022-10-03T08:32:49.941Z,-23535.66
2022-10-03T08:35:25.693Z,-23545.31
2022-10-03T08:37:58.251Z,-23527.91
2022-10-03T08:40:48.085Z,-23539.00
2022-10-03T08:43:18.312Z,-23573.63
2022-10-03T08:45:47.093Z,-23590.69
2022-10-03T08:48:25.065Z,-23563.81
2022-10-03T08:50:50.267Z,-23555.91
2022-10-03T08:53:16.811Z,-23553.06
2022-10-03T08:55:45.957Z,-23565.72
2022-10-03T08:58:15.900Z,-23560.34
2022-10-03T09:00:21.371Z,-23562.56
2022-10-03T09:06:13.398Z,-23540.41
2022-10-03T09:08:45.247Z,-23532.81
2022-10-03T09:11:13.059Z,-23533.28
2022-10-03T09:13:40.230Z,-23527.28
2022-10-03T09:16:14.879Z,-23535.19
2022-10-03T09:18:41.448Z,-23537.72
2022-10-03T09:21:27.177Z,-23538.34
2022-10-03T09:24:15.572Z,-23544.38
2022-10-03T09:26:55.057Z,-23625.28
2022-10-03T09:29:20.778Z,-23647.53
2022-10-03T09:31:49.283Z,-23621.97
2022-10-03T09:34:22.643Z,-23627.19
2022-10-03T09:36:52.862Z,-23655.59
2022-10-03T09:39:32.863Z,-23598.91
2022-10-03T09:42:00.272Z,-23595.59
2022-10-03T09:44:32.661Z,-23585.00
2022-10-03T09:47:16.150Z,-23571.09
2022-10-03T09:50:13.516Z,-23551.34
2022-10-03T09:52:34.950Z,-23575.22
2022-10-03T09:55:06.126Z,-23580.09
2022-10-03T09:57:38.400Z,-23573.63
2022-10-03T10:00:05.023Z,-23581.84
2022-10-03T10:02:35.421Z,-23578.84
2022-10-03T10:05:06.322Z,-23584.06
2022-10-03T10:07:40.680Z,-23572.34
2022-10-03T10:10:04.639Z,-23555.59
2022-10-03T10:12:44.049Z,-23574.88
2022-10-03T10:15:09.524Z,-23575.22
2022-10-03T10:18:07.301Z,-23566.19
2022-10-03T10:20:28.136Z,-23569.19
2022-10-03T10:23:09.296Z,-23558.91
2022-10-03T10:25:55.034Z,-23570.78
2022-10-03T10:28:38.202Z,-23582.16
2022-10-03T10:31:18.145Z,-23567.31
2022-10-03T10:34:09.107Z,-23569.50
2022-10-03T10:37:00.437Z,-23578.38
2022-10-03T10:39:32.056Z,-23574.56
2022-10-03T10:42:11.799Z,-23576.47
2022-10-03T10:45:01.204Z,-23577.41
2022-10-03T10:47:29.797Z,-23575.53
2022-10-03T10:50:17.366Z,-23585.66
2022-10-03T10:53:10.124Z,-23577.41
2022-10-03T10:55:53.019Z,-23562.88
2022-10-03T10:58:43.494Z,-23583.13
2022-10-03T11:01:10.364Z,-23571.25
2022-10-03T11:04:04.291Z,-23575.69
2022-10-03T11:06:53.520Z,-23583.44
2022-10-03T11:09:45.365Z,-23570.16
2022-10-03T11:12:44.611Z,-23588.16
2022-10-03T11:15:23.796Z,-23580.28
2022-10-03T11:18:18.825Z,-23603.50
2022-10-03T11:21:12.090Z,-23596.38
2022-10-03T11:23:44.269Z,-23597.66
2022-10-03T11:26:27.918Z,-23592.91
2022-10-03T11:29:26.400Z,-23582.31
2022-10-03T11:32:11.153Z,-23585.31
2022-10-03T11:34:51.651Z,-23595.44
2022-10-03T11:37:20.371Z,-23598.91
2022-10-03T11:39:33.422Z,-23585.81
2022-10-03T11:41:45.769Z,-23606.03
2022-10-03T11:44:23.400Z,-23593.06
2022-10-03T11:46:47.986Z,-23599.22
2022-10-03T11:48:57.618Z,-23588.63
2022-10-03T11:51:06.838Z,-23590.84
2022-10-03T11:53:21.125Z,-23592.91
2022-10-03T11:55:33.077Z,-23598.28
2022-10-03T11:57:40.842Z,-23619.13
2022-10-03T12:00:02.750Z,-23605.53
2022-10-03T12:02:15.250Z,-23610.28
2022-10-03T12:04:30.133Z,-23609.34
2022-10-03T12:07:03.750Z,-23652.59
2022-10-03T12:09:25.231Z,-23627.34
2022-10-03T12:11:40.876Z,-23637.91
2022-10-03T12:13:51.291Z,-23662.69
2022-10-03T12:15:58.960Z,-23635.38
2022-10-03T12:18:09.196Z,-23614.38
2022-10-03T12:20:23.072Z,-23610.75
2022-10-03T12:22:42.935Z,-23603.50
2022-10-03T12:24:47.621Z,-23615.34
2022-10-03T12:26:59.930Z,-23611.22
2022-10-03T12:29:05.610Z,-23617.88
2022-10-03T12:31:19.226Z,-23630.19
2022-10-03T12:33:45.165Z,-23638.22
2022-10-03T12:35:55.304Z,-23609.03
2022-10-03T12:38:08.987Z,-23616.28
2022-10-03T12:40:19.488Z,-23649.44
2022-10-03T12:42:29.399Z,-23640.28
2022-10-03T12:44:42.559Z,-23630.50
2022-10-03T12:47:01.009Z,-23608.22
2022-10-03T12:49:11.779Z,-23598.44
2022-10-03T12:51:43.073Z,-23605.22
2022-10-03T12:53:58.949Z,-23616.91
2022-10-03T12:56:07.703Z,-23644.69
2022-10-03T12:58:24.165Z,-23649.25
2022-10-03T13:00:29.475Z,-23622.13
2022-10-03T13:02:38.024Z,-23609.97
2022-10-03T13:04:46.485Z,-23611.22
2022-10-03T13:07:05.806Z,-23600.34
2022-10-03T13:09:32.984Z,-23603.34
2022-10-03T13:11:46.699Z,-23597.66
2022-10-03T13:14:06.255Z,-23590.53
2022-10-03T13:16:22.508Z,-23605.22
2022-10-03T13:18:35.271Z,-23630.34
2022-10-03T13:20:41.029Z,-23627.66
2022-10-03T13:22:50.056Z,-23643.75
2022-10-03T13:25:03.694Z,-23648.78
2022-10-03T13:27:17.837Z,-23625.59
2022-10-03T13:29:30.067Z,-23627.03
2022-10-03T13:31:34.358Z,-23645.00
2022-10-03T13:33:44.313Z,-23634.59
2022-10-03T13:36:01.512Z,-23622.28
2022-10-03T13:38:17.748Z,-23635.88
2022-10-03T13:40:21.176Z,-23640.28
2022-10-03T13:42:36.171Z,-23636.50
2022-10-03T13:44:42.510Z,-23626.41
2022-10-03T13:46:53.403Z,-23616.59
2022-10-03T13:49:02.238Z,-23619.44
2022-10-03T13:51:16.179Z,-23617.38
2022-10-03T13:53:43.264Z,-23623.88
2022-10-03T13:55:49.549Z,-23643.13
2022-10-03T13:58:06.082Z,-23643.13
2022-10-03T14:00:12.357Z,-23617.88
2022-10-03T14:02:28.133Z,-23610.91
2022-10-03T14:04:54.243Z,-23615.66
2022-10-03T14:07:04.879Z,-23603.66
2022-10-03T14:09:35.020Z,-23617.88
2022-10-03T14:11:46.112Z,-23606.97
2022-10-03T14:14:05.816Z,-23603.50
2022-10-03T14:16:17.763Z,-23603.66
2022-10-03T14:18:33.496Z,-23616.44
2022-10-03T14:20:46.300Z,-23620.41
2022-10-03T14:25:35.415Z,-23630.19
2022-10-03T14:27:55.126Z,-23628.13
2022-10-03T14:30:06.719Z,-23627.34
2022-10-03T14:32:42.335Z,-23615.19
2022-10-03T14:34:53.069Z,-23621.81
2022-10-03T14:37:14.602Z,-23618.19
2022-10-03T14:39:35.683Z,-23625.75
2022-10-03T14:41:47.638Z,-23619.75
2022-10-03T14:43:54.634Z,-23627.50
2022-10-03T14:46:01.027Z,-23636.97
2022-10-03T14:48:08.844Z,-23624.81
2022-10-03T14:50:19.056Z,-23632.56
2022-10-03T14:52:28.537Z,-23629.25
2022-10-03T14:54:37.457Z,-23636.81
2022-10-03T14:56:46.772Z,-23645.16
2022-10-03T14:58:52.824Z,-23647.38
2022-10-03T15:01:04.288Z,-23649.13
2022-10-03T15:03:38.428Z,-23645.78
2022-10-03T15:05:58.734Z,-23632.22
2022-10-03T15:08:03.005Z,-23628.28
2022-10-03T15:10:11.959Z,-23635.06
2022-10-03T15:12:20.942Z,-23631.28
2022-10-03T15:14:28.287Z,-23632.06
2022-10-03T15:16:34.692Z,-23625.13
2022-10-03T15:18:39.277Z,-23617.69
2022-10-03T15:20:43.968Z,-23619.44
2022-10-03T15:22:52.133Z,-23632.56
2022-10-03T15:24:58.966Z,-23632.06
2022-10-03T15:27:04.667Z,-23629.06
2022-10-03T15:29:16.107Z,-23616.13
2022-10-03T15:31:29.857Z,-23623.22
2022-10-03T15:33:34.644Z,-23622.91
2022-10-03T15:35:42.018Z,-23621.81
2022-10-03T15:37:47.763Z,-23622.59
2022-10-03T15:39:53.183Z,-23620.25
2022-10-03T15:41:59.871Z,-23617.88
2022-10-03T15:44:08.454Z,-23614.38
2022-10-03T15:46:21.202Z,-23622.13
2022-10-03T15:48:26.123Z,-23620.09
2022-10-03T15:50:33.415Z,-23623.88
2022-10-03T15:52:41.289Z,-23621.97
2022-10-03T15:54:48.780Z,-23628.59
2022-10-03T15:56:55.157Z,-23614.22
2022-10-03T15:59:07.148Z,-23620.72
2022-10-03T16:01:17.606Z,-23611.88
2022-10-03T16:03:29.457Z,-23611.72
2022-10-03T16:05:35.156Z,-23608.06
2022-10-03T16:07:42.844Z,-23609.97
2022-10-03T16:09:53.097Z,-23601.44
2022-10-03T16:12:09.294Z,-23602.06
2022-10-03T16:14:18.093Z,-23596.22
2022-10-03T16:16:26.727Z,-23597.19
2022-10-03T16:18:48.274Z,-23597.97
2022-10-03T16:20:56.748Z,-23594.50
2022-10-03T16:23:03.268Z,-23591.34
2022-10-03T16:25:13.015Z,-23595.44
2022-10-03T16:27:22.177Z,-23590.69
2022-10-03T16:29:29.690Z,-23583.13
2022-10-03T16:31:41.030Z,-23584.38
2022-10-03T16:33:55.894Z,-23578.69
2022-10-03T16:36:03.470Z,-23580.91
2022-10-03T16:38:16.750Z,-23573.31
2022-10-03T16:40:22.902Z,-23569.34
2022-10-03T16:42:28.970Z,-23570.78
2022-10-03T16:44:43.482Z,-23565.88
2022-10-03T16:46:48.310Z,-23564.78
2022-10-03T16:49:26.612Z,-23567.63
2022-10-03T16:51:40.630Z,-23565.25
2022-10-03T16:53:45.260Z,-23557.81
2022-10-03T16:55:53.654Z,-23553.06
2022-10-03T16:58:06.713Z,-23547.38
2022-10-03T17:00:16.813Z,-23547.22
2022-10-03T17:02:24.353Z,-23541.69
2022-10-03T17:04:32.736Z,-23538.50
2022-10-03T17:06:38.961Z,-23544.84
2022-10-03T17:08:49.615Z,-23545.78
2022-10-03T17:10:55.481Z,-23541.34
2022-10-03T17:13:03.648Z,-23535.03
2022-10-03T17:15:10.006Z,-23531.84
2022-10-03T17:17:30.618Z,-23532.81
2022-10-03T17:19:37.396Z,-23529.81
2022-10-03T17:21:44.141Z,-23523.63
2022-10-03T17:23:54.414Z,-23523.94
2022-10-03T17:26:03.093Z,-23520.47
2022-10-03T17:28:11.745Z,-23519.81
2022-10-03T17:30:34.146Z,-23518.72
2022-10-03T17:32:42.068Z,-23519.81
2022-10-03T17:34:51.277Z,-23516.34
2022-10-03T17:37:31.311Z,-23514.59
2022-10-03T17:39:55.594Z,-23516.66
2022-10-03T17:42:05.122Z,-23515.25
2022-10-03T17:44:20.526Z,-23509.69
2022-10-03T17:46:32.290Z,-23504.47
2022-10-03T17:48:40.589Z,-23508.75
2022-10-03T17:50:56.095Z,-23512.38
2022-10-03T17:53:00.604Z,-23511.91
2022-10-03T17:55:05.862Z,-23510.97
2022-10-03T17:57:17.516Z,-23507.78
2022-10-03T17:59:27.897Z,-23512.53
2022-10-03T18:01:37.178Z,-23510.50
2022-10-03T18:03:49.725Z,-23506.84
2022-10-03T18:05:55.516Z,-23505.25
2022-10-03T18:08:04.239Z,-23504.00
2022-10-03T18:10:18.290Z,-23502.41
2022-10-03T18:12:28.627Z,-23497.81
2022-10-03T18:14:42.955Z,-23500.81
2022-10-03T18:16:49.442Z,-23502.56
2022-10-03T18:19:13.959Z,-23500.50
2022-10-03T18:21:26.068Z,-23504.94
2022-10-03T18:23:54.273Z,-23501.78
2022-10-03T18:26:20.992Z,-23500.34
2022-10-03T18:28:27.403Z,-23505.56
2022-10-03T18:30:36.021Z,-23497.66
2022-10-03T18:32:40.121Z,-23497.03
2022-10-03T18:34:48.747Z,-23498.75
2022-10-03T18:36:54.643Z,-23495.44
2022-10-03T18:39:00.868Z,-23490.38
2022-10-03T18:41:06.489Z,-23490.03
2022-10-03T18:43:24.795Z,-23489.41
2022-10-03T18:45:31.362Z,-23493.06
2022-10-03T18:47:36.094Z,-23491.78
2022-10-03T18:49:42.981Z,-23491.31
2022-10-03T18:51:52.035Z,-23486.25
2022-10-03T18:54:00.574Z,-23486.25
2022-10-03T18:56:07.594Z,-23487.50
2022-10-03T18:58:21.090Z,-23487.03
2022-10-03T19:00:28.906Z,-23484.97
2022-10-03T19:02:37.906Z,-23481.97
2022-10-03T19:04:44.001Z,-23481.47
2022-10-03T19:06:52.459Z,-23482.28
2022-10-03T19:08:59.025Z,-23483.72
2022-10-03T19:11:11.095Z,-23480.84
2022-10-03T19:13:22.986Z,-23476.88
2022-10-03T19:15:38.804Z,-23472.75
2022-10-03T19:17:51.449Z,-23471.34
2022-10-03T19:19:58.801Z,-23467.84
2022-10-03T19:22:06.814Z,-23469.13
2022-10-03T19:24:14.183Z,-23468.00
2022-10-03T19:26:23.797Z,-23464.69
2022-10-03T19:28:31.184Z,-23465.63
2022-10-03T19:30:35.809Z,-23463.56
2022-10-03T19:32:50.290Z,-23464.19
2022-10-03T19:34:54.388Z,-23463.88
2022-10-03T19:37:00.639Z,-23464.38
2022-10-03T19:39:06.159Z,-23466.75
2022-10-03T19:41:17.868Z,-23462.31
2022-10-03T19:43:37.275Z,-23461.19
2022-10-03T19:45:40.422Z,-23462.47
2022-10-03T19:47:52.063Z,-23465.63
2022-10-03T19:50:05.160Z,-23462.63
2022-10-03T19:52:15.828Z,-23460.41
2022-10-03T19:54:33.034Z,-23459.91
2022-10-03T19:56:37.189Z,-23457.22
2022-10-03T19:58:41.162Z,-23456.44
2022-10-03T20:00:52.046Z,-23457.53
2022-10-03T20:02:58.403Z,-23458.97
2022-10-03T20:05:01.992Z,-23465.31
2022-10-03T20:07:11.127Z,-23464.38
2022-10-03T20:09:23.160Z,-23463.09
2022-10-03T20:11:38.649Z,-23461.03
2022-10-03T20:13:44.047Z,-23463.72
2022-10-03T20:15:49.103Z,-23457.22
2022-10-03T20:17:53.245Z,-23456.13
2022-10-03T20:19:59.193Z,-23453.25
2022-10-03T20:22:04.982Z,-23453.56
2022-10-03T20:24:16.298Z,-23454.53
2022-10-03T20:26:26.157Z,-23450.88
2022-10-03T20:28:45.811Z,-23451.34
2022-10-03T20:30:50.893Z,-23455.47
2022-10-03T20:32:56.789Z,-23456.28
2022-10-03T20:35:01.795Z,-23456.28
2022-10-03T20:37:21.913Z,-23450.88
2022-10-03T20:39:29.323Z,-23454.84
2022-10-03T20:41:40.289Z,-23456.13
2022-10-03T20:43:46.593Z,-23453.91
2022-10-03T20:46:02.289Z,-23452.78
2022-10-03T20:48:09.291Z,-23449.44
2022-10-03T20:50:20.992Z,-23447.38
2022-10-03T20:52:25.566Z,-23449.28
2022-10-03T20:54:36.769Z,-23448.50
2022-10-03T20:56:50.986Z,-23452.31
2022-10-03T20:58:58.797Z,-23453.56
2022-10-03T21:01:04.328Z,-23450.88
2022-10-03T21:03:09.149Z,-23445.00
2022-10-03T21:05:21.157Z,-23444.69
2022-10-03T21:07:31.593Z,-23446.91
2022-10-03T21:09:47.688Z,-23448.03
2022-10-03T21:11:54.715Z,-23446.13
2022-10-03T21:14:02.600Z,-23445.81
2022-10-03T21:16:17.929Z,-23447.53
2022-10-03T21:18:24.059Z,-23445.00
2022-10-03T21:20:33.243Z,-23439.28
2022-10-03T21:22:37.100Z,-23439.78
2022-10-03T21:24:49.130Z,-23446.28
2022-10-03T21:26:56.527Z,-23448.19
2022-10-03T21:29:28.651Z,-23451.34
2022-10-03T21:31:39.916Z,-23448.97
2022-10-03T21:33:50.737Z,-23447.22
2022-10-03T21:35:55.060Z,-23446.44
2022-10-03T21:38:11.647Z,-23445.66
2022-10-03T21:40:26.719Z,-23446.13
2022-10-03T21:42:36.116Z,-23442.63
2022-10-03T21:45:04.401Z,-23443.59
2022-10-03T21:47:22.238Z,-23442.47
2022-10-03T21:49:47.877Z,-23444.69
2022-10-03T21:52:18.215Z,-23445.66
2022-10-03T21:54:36.829Z,-23444.06
2022-10-03T21:56:50.964Z,-23442.31
2022-10-03T21:59:11.364Z,-23442.00
2022-10-03T22:01:23.704Z,-23440.56
2022-10-03T22:03:31.664Z,-23440.25
2022-10-03T22:05:42.787Z,-23438.34
2022-10-03T22:07:46.539Z,-23441.53
2022-10-03T22:09:55.027Z,-23440.41
2022-10-03T22:12:00.966Z,-23444.38
2022-10-03T22:14:14.571Z,-23440.88
2022-10-03T22:16:26.502Z,-23440.25
2022-10-03T22:18:34.383Z,-23436.75
2022-10-03T22:20:40.115Z,-23435.81
2022-10-03T22:22:56.083Z,-23435.47
2022-10-03T22:25:11.008Z,-23436.59
2022-10-03T22:27:20.601Z,-23436.59
2022-10-03T22:29:32.421Z,-23433.09
2022-10-03T22:31:44.484Z,-23434.53
2022-10-03T22:34:00.365Z,-23430.72
2022-10-03T22:36:04.529Z,-23432.47
2022-10-03T22:38:08.852Z,-23436.13
2022-10-03T22:40:12.051Z,-23430.72
2022-10-03T22:42:16.516Z,-23426.75
2022-10-03T22:44:23.720Z,-23427.38
2022-10-03T22:46:31.205Z,-23426.59
2022-10-03T22:48:38.520Z,-23430.09
2022-10-03T22:50:43.238Z,-23427.22
2022-10-03T22:52:49.565Z,-23424.38
2022-10-03T22:54:53.044Z,-23426.75
2022-10-03T22:56:59.264Z,-23423.72
2022-10-03T22:59:03.844Z,-23425.78
2022-10-03T23:01:07.179Z,-23428.81
2022-10-03T23:03:14.215Z,-23429.78
2022-10-03T23:05:31.211Z,-23427.06
2022-10-03T23:07:47.417Z,-23423.72
2022-10-03T23:10:01.591Z,-23419.59
2022-10-03T23:12:05.140Z,-23418.81
2022-10-03T23:14:22.128Z,-23418.66
2022-10-03T23:16:42.710Z,-23418.34
2022-10-03T23:18:59.224Z,-23419.13
2022-10-03T23:21:07.622Z,-23422.63
2022-10-03T23:23:15.421Z,-23420.56
2022-10-03T23:25:23.697Z,-23416.44
2022-10-03T23:27:53.599Z,-23417.84
2022-10-03T23:30:29.476Z,-23414.03
2022-10-03T23:32:54.035Z,-23412.47
2022-10-03T23:35:11.780Z,-23413.09
2022-10-03T23:37:43.365Z,-23409.91
2022-10-03T23:40:29.800Z,-23411.03
2022-10-03T23:42:43.421Z,-23412.78
2022-10-03T23:44:49.953Z,-23419.28
2022-10-03T23:46:52.636Z,-23410.72
2022-10-03T23:48:57.759Z,-23409.75
2022-10-03T23:51:03.053Z,-23405.31
2022-10-03T23:53:09.034Z,-23409.28
2022-10-03T23:55:21.241Z,-23414.22
2022-10-03T23:57:31.323Z,-23408.50
2022-10-03T23:59:37.471Z,-23405.00
